createdAt,value
2022-09-23T00:01:00.133Z,94844.63
2022-09-23T00:03:29.043Z,94848.91
2022-09-23T00:06:00.486Z,94847.78
2022-09-23T00:08:27.252Z,94854.66
2022-09-23T00:10:54.327Z,94859.53
2022-09-23T00:13:20.984Z,94851.47
2022-09-23T00:15:47.568Z,94861.66
2022-09-23T00:18:14.280Z,94860.97
2022-09-23T00:20:40.899Z,94858.59
2022-09-23T00:23:07.503Z,94863.28
2022-09-23T00:25:34.232Z,94855.63
2022-09-23T00:28:00.943Z,94858.00
2022-09-23T00:30:27.621Z,94854.88
2022-09-23T00:32:54.283Z,94854.00
2022-09-23T00:35:20.964Z,94848.97
2022-09-23T00:37:47.632Z,94851.75
2022-09-23T00:40:14.585Z,94852.78
2022-09-23T00:42:49.287Z,94844.63
2022-09-23T00:45:17.004Z,94850.63
2022-09-23T00:47:50.460Z,94848.00
2022-09-23T00:50:32.147Z,94842.19
2022-09-23T00:53:01.593Z,94840.63
2022-09-23T00:55:50.048Z,94841.63
2022-09-23T00:58:20.224Z,94842.09
2022-09-23T01:00:47.181Z,94842.66
2022-09-23T01:03:14.641Z,94841.44
2022-09-23T01:05:41.855Z,94837.50
2022-09-23T01:08:10.658Z,94840.44
2022-09-23T01:10:55.225Z,94843.50
2022-09-23T01:13:29.248Z,94839.13
2022-09-23T01:16:06.208Z,94830.63
2022-09-23T01:18:48.009Z,94831.69
2022-09-23T01:21:42.975Z,94825.69
2022-09-23T01:24:33.106Z,94816.94
2022-09-23T01:27:17.798Z,94818.13
2022-09-23T01:29:56.937Z,94818.41
2022-09-23T01:32:31.283Z,94826.19
2022-09-23T01:35:17.195Z,94828.13
2022-09-23T01:37:52.603Z,94817.50
2022-09-23T01:40:38.614Z,94821.50
2022-09-23T01:43:13.870Z,94828.72
2022-09-23T01:45:46.797Z,94821.50
2022-09-23T01:48:28.492Z,94819.38
2022-09-23T01:51:02.232Z,94817.00
2022-09-23T01:53:40.436Z,94817.97
2022-09-23T01:56:15.911Z,94810.63
2022-09-23T01:58:48.349Z,94802.38
2022-09-23T02:01:23.372Z,94801.19
2022-09-23T02:03:59.782Z,94804.69
2022-09-23T02:06:33.767Z,94794.41
2022-09-23T02:09:03.415Z,94808.47
2022-09-23T02:11:36.167Z,94809.69
2022-09-23T02:14:08.272Z,94800.69
2022-09-23T02:16:41.091Z,94811.34
2022-09-23T02:19:18.321Z,94803.59
2022-09-23T02:21:50.077Z,94804.88
2022-09-23T02:24:21.016Z,94806.44
2022-09-23T02:26:54.537Z,94802.19
2022-09-23T02:29:26.984Z,94798.06
2022-09-23T02:32:17.922Z,94808.25
2022-09-23T02:35:06.455Z,94809.28
2022-09-23T02:37:48.340Z,94795.81
2022-09-23T02:40:38.891Z,94792.50
2022-09-23T02:43:21.307Z,94785.44
2022-09-23T02:45:48.279Z,94781.22
2022-09-23T02:48:25.027Z,94793.56
2022-09-23T02:50:52.114Z,94801.97
2022-09-23T02:53:18.747Z,94786.88
2022-09-23T02:55:45.801Z,94783.09
2022-09-23T02:58:13.940Z,94782.84
2022-09-23T03:01:15.577Z,94788.75
2022-09-23T03:03:51.705Z,94788.53
2022-09-23T03:06:42.754Z,94788.16
2022-09-23T03:09:14.334Z,94778.38
2022-09-23T03:11:47.246Z,94773.41
2022-09-23T03:14:25.849Z,94782.84
2022-09-23T03:17:20.183Z,94782.84
2022-09-23T03:19:55.501Z,94771.72
2022-09-23T03:22:27.270Z,94785.00
2022-09-23T03:24:54.303Z,94775.03
2022-09-23T03:27:25.756Z,94776.59
2022-09-23T03:29:53.778Z,94773.88
2022-09-23T03:32:23.586Z,94785.91
2022-09-23T03:34:52.508Z,94778.34
2022-09-23T03:37:35.842Z,94788.03
2022-09-23T03:40:17.843Z,94791.81
2022-09-23T03:42:44.518Z,94771.25
2022-09-23T03:45:17.166Z,94787.06
2022-09-23T03:47:44.126Z,94779.28
2022-09-23T03:50:13.477Z,94787.06
2022-09-23T03:52:52.113Z,94780.47
2022-09-23T03:55:19.479Z,94776.34
2022-09-23T03:57:46.281Z,94765.00
2022-09-23T04:00:13.977Z,94768.19
2022-09-23T04:02:41.125Z,94765.13
2022-09-23T04:05:08.992Z,94768.78
2022-09-23T04:07:35.610Z,94766.31
2022-09-23T04:10:02.251Z,94762.88
2022-09-23T04:12:28.888Z,94758.06
2022-09-23T04:14:55.529Z,94758.97
2022-09-23T04:17:22.159Z,94741.06
2022-09-23T04:19:48.757Z,94750.13
2022-09-23T04:22:15.409Z,94753.34
2022-09-23T04:24:42.047Z,94762.75
2022-09-23T04:27:08.749Z,94756.84
2022-09-23T04:29:35.537Z,94760.53
2022-09-23T04:32:02.366Z,94749.19
2022-09-23T04:34:29.013Z,94758.06
2022-09-23T04:36:55.616Z,94760.41
2022-09-23T04:39:22.271Z,94757.09
2022-09-23T04:41:48.881Z,94750.97
2022-09-23T04:44:15.645Z,94750.25
2022-09-23T04:46:43.905Z,94760.88
2022-09-23T04:49:10.882Z,94766.53
2022-09-23T04:51:37.580Z,94758.38
2022-09-23T04:54:04.341Z,94767.03
2022-09-23T04:56:34.028Z,94756.50
2022-09-23T04:59:01.925Z,94773.09
2022-09-23T05:01:31.550Z,94762.69
2022-09-23T05:04:05.774Z,94773.19
2022-09-23T05:06:35.044Z,94769.72
2022-09-23T05:09:02.783Z,94771.03
2022-09-23T05:11:30.908Z,94778.50
2022-09-23T05:13:57.538Z,94779.06
2022-09-23T05:16:25.054Z,94787.06
2022-09-23T05:18:52.546Z,94775.03
2022-09-23T05:21:21.946Z,94783.13
2022-09-23T05:23:52.467Z,94779.38
2022-09-23T05:26:19.108Z,94786.25
2022-09-23T05:28:45.758Z,94784.34
2022-09-23T05:31:19.400Z,94763.34
2022-09-23T05:33:52.257Z,94766.81
2022-09-23T05:36:22.189Z,94778.97
2022-09-23T05:38:50.212Z,94771.59
2022-09-23T05:41:17.737Z,94783.38
2022-09-23T05:43:44.615Z,94785.25
2022-09-23T05:46:13.924Z,94788.00
2022-09-23T05:48:42.028Z,94779.63
2022-09-23T05:51:12.914Z,94783.66
2022-09-23T05:53:40.803Z,94796.16
2022-09-23T05:56:07.734Z,94782.69
2022-09-23T05:58:34.656Z,94797.09
2022-09-23T06:01:01.352Z,94780.69
2022-09-23T06:03:28.181Z,94777.28
2022-09-23T06:05:55.728Z,94784.97
2022-09-23T06:08:23.133Z,94789.84
2022-09-23T06:10:54.368Z,94782.56
2022-09-23T06:13:21.336Z,94790.00
2022-09-23T06:15:47.989Z,94783.50
2022-09-23T06:18:14.635Z,94781.03
2022-09-23T06:20:41.288Z,94772.22
2022-09-23T06:23:10.624Z,94786.25
2022-09-23T06:25:40.816Z,94773.50
2022-09-23T06:28:10.879Z,94779.31
2022-09-23T06:30:37.603Z,94777.44
2022-09-23T06:33:04.265Z,94774.69
2022-09-23T06:35:33.281Z,94773.53
2022-09-23T06:38:03.448Z,94778.25
2022-09-23T06:40:31.252Z,94789.56
2022-09-23T06:43:01.749Z,94774.78
2022-09-23T06:45:29.045Z,94784.09
2022-09-23T06:47:57.169Z,94785.97
2022-09-23T06:50:27.406Z,94788.66
2022-09-23T06:52:56.412Z,94781.19
2022-09-23T06:55:24.685Z,94787.16
2022-09-23T06:57:51.417Z,94778.59
2022-09-23T07:00:18.515Z,94781.88
2022-09-23T07:02:45.678Z,94784.94
2022-09-23T07:05:12.543Z,94769.03
2022-09-23T07:07:39.512Z,94770.63
2022-09-23T07:10:07.277Z,94781.56
2022-09-23T07:12:34.428Z,94768.59
2022-09-23T07:15:01.067Z,94776.78
2022-09-23T07:17:27.932Z,94776.06
2022-09-23T07:19:57.467Z,94765.66
2022-09-23T07:22:25.232Z,94757.47
2022-09-23T07:24:52.390Z,94752.03
2022-09-23T07:27:20.106Z,94763.63
2022-09-23T07:29:50.648Z,94750.19
2022-09-23T07:32:17.641Z,94759.13
2022-09-23T07:34:44.605Z,94759.03
2022-09-23T07:37:11.227Z,94752.13
2022-09-23T07:39:39.781Z,94757.88
2022-09-23T07:42:06.548Z,94750.38
2022-09-23T07:44:33.624Z,94763.84
2022-09-23T07:47:00.610Z,94771.44
2022-09-23T07:49:27.751Z,94763.94
2022-09-23T07:51:54.480Z,94742.41
2022-09-23T07:54:21.183Z,94762.34
2022-09-23T07:56:48.114Z,94768.19
2022-09-23T07:59:18.398Z,94765.31
2022-09-23T08:01:48.525Z,94770.44
2022-09-23T08:04:32.830Z,94761.28
2022-09-23T08:07:01.877Z,94762.91
2022-09-23T08:09:34.464Z,94746.16
2022-09-23T08:12:01.462Z,94753.66
2022-09-23T08:14:28.197Z,94745.69
2022-09-23T08:16:54.834Z,94752.94
2022-09-23T08:19:21.585Z,94753.94
2022-09-23T08:21:48.281Z,94757.91
2022-09-23T08:24:17.202Z,94754.13
2022-09-23T08:26:48.169Z,94748.72
2022-09-23T08:29:16.710Z,94749.66
2022-09-23T08:31:43.768Z,94742.91
2022-09-23T08:34:10.654Z,94741.34
2022-09-23T08:36:37.408Z,94738.66
2022-09-23T08:39:05.128Z,94742.81
2022-09-23T08:41:36.461Z,94752.25
2022-09-23T08:44:05.288Z,94749.91
2022-09-23T08:46:35.899Z,94753.38
2022-09-23T08:49:02.550Z,94747.06
2022-09-23T08:51:35.974Z,94746.94
2022-09-23T08:54:02.781Z,94740.59
2022-09-23T08:56:30.697Z,94730.94
2022-09-23T08:59:00.206Z,94748.56
2022-09-23T09:01:52.630Z,94743.34
2022-09-23T09:04:28.018Z,94734.75
2022-09-23T09:07:31.752Z,94740.28
2022-09-23T09:10:11.906Z,94736.00
2022-09-23T09:12:52.769Z,94737.41
2022-09-23T09:15:27.445Z,94724.19
2022-09-23T09:18:01.330Z,94729.28
2022-09-23T09:20:45.656Z,94728.09
2022-09-23T09:23:22.905Z,94733.84
2022-09-23T09:25:51.415Z,94734.47
2022-09-23T09:28:36.432Z,94722.88
2022-09-23T09:31:15.847Z,94712.59
2022-09-23T09:33:51.615Z,94729.88
2022-09-23T09:36:23.887Z,94721.81
2022-09-23T09:38:51.326Z,94714.63
2022-09-23T09:41:21.411Z,94717.28
2022-09-23T09:43:57.691Z,94702.63
2022-09-23T09:46:29.453Z,94704.41
2022-09-23T09:48:57.114Z,94704.19
2022-09-23T09:51:25.256Z,94697.31
2022-09-23T09:53:55.801Z,94689.47
2022-09-23T09:56:31.319Z,94692.50
2022-09-23T09:59:06.702Z,94688.91
2022-09-23T10:01:34.993Z,94673.19
2022-09-23T10:04:04.370Z,94682.25
2022-09-23T10:06:33.750Z,94663.88
2022-09-23T10:09:13.983Z,94681.16
2022-09-23T10:11:41.718Z,94671.78
2022-09-23T10:14:20.383Z,94666.31
2022-09-23T10:16:49.034Z,94666.91
2022-09-23T10:19:26.514Z,94654.69
2022-09-23T10:21:58.761Z,94650.38
2022-09-23T10:24:30.536Z,94650.16
2022-09-23T10:27:09.032Z,94655.47
2022-09-23T10:29:47.875Z,94645.44
2022-09-23T10:32:30.202Z,94645.63
2022-09-23T10:35:03.905Z,94650.09
2022-09-23T10:37:32.670Z,94649.41
2022-09-23T10:40:18.876Z,94649.91
2022-09-23T10:43:17.181Z,94642.28
2022-09-23T10:46:07.065Z,94629.19
2022-09-23T10:48:51.590Z,94643.84
2022-09-23T10:51:46.882Z,94624.47
2022-09-23T10:54:25.374Z,94643.22
2022-09-23T10:57:00.709Z,94631.38
2022-09-23T10:59:28.067Z,94624.81
2022-09-23T11:02:40.167Z,94625.53
2022-09-23T11:05:18.807Z,94618.81
2022-09-23T11:07:45.360Z,94617.03
2022-09-23T11:10:48.859Z,94612.56
2022-09-23T11:13:44.463Z,94619.31
2022-09-23T11:16:37.260Z,94610.78
2022-09-23T11:19:45.895Z,94613.25
2022-09-23T11:22:36.275Z,94599.66
2022-09-23T11:25:28.644Z,94602.69
2022-09-23T11:28:21.547Z,94589.69
2022-09-23T11:30:51.021Z,94595.56
2022-09-23T11:33:46.617Z,94594.56
2022-09-23T11:36:24.860Z,94578.31
2022-09-23T11:38:52.596Z,94583.97
2022-09-23T11:41:39.102Z,94577.03
2022-09-23T11:44:18.097Z,94566.22
2022-09-23T11:46:52.869Z,94566.94
2022-09-23T11:49:32.678Z,94575.22
2022-09-23T11:52:06.501Z,94554.13
2022-09-23T11:54:54.405Z,94561.72
2022-09-23T11:57:25.564Z,94574.03
2022-09-23T11:59:56.608Z,94550.22
2022-09-23T12:02:30.915Z,94559.50
2022-09-23T12:05:03.227Z,94559.34
2022-09-23T12:07:46.978Z,94561.59
2022-09-23T12:10:14.461Z,94548.91
2022-09-23T12:13:06.553Z,94551.16
2022-09-23T12:16:10.729Z,94546.13
2022-09-23T12:19:01.088Z,94546.09
2022-09-23T12:21:51.000Z,94550.88
2022-09-23T12:24:48.192Z,94533.88
2022-09-23T12:27:29.726Z,94548.63
2022-09-23T12:30:06.247Z,94536.44
2022-09-23T12:32:33.265Z,94539.22
2022-09-23T12:35:00.607Z,94533.06
2022-09-23T12:37:35.670Z,94526.19
2022-09-23T12:40:09.462Z,94521.19
2022-09-23T12:42:41.575Z,94525.44
2022-09-23T12:45:28.266Z,94525.16
2022-09-23T12:47:54.976Z,94514.47
2022-09-23T12:50:50.905Z,94516.06
2022-09-23T12:53:54.981Z,94516.34
2022-09-23T12:56:29.891Z,94506.41
2022-09-23T12:59:01.394Z,94510.88
2022-09-23T13:01:28.730Z,94506.88
2022-09-23T13:04:15.828Z,94508.06
2022-09-23T13:06:43.384Z,94510.84
2022-09-23T13:09:24.938Z,94500.88
2022-09-23T13:11:52.962Z,94499.91
2022-09-23T13:14:27.387Z,94499.53
2022-09-23T13:16:56.228Z,94493.31
2022-09-23T13:19:25.876Z,94498.28
2022-09-23T13:22:09.265Z,94490.44
2022-09-23T13:24:42.109Z,94482.31
2022-09-23T13:27:11.681Z,94488.09
2022-09-23T13:29:45.237Z,94490.94
2022-09-23T13:32:19.333Z,94461.75
2022-09-23T13:34:58.262Z,94485.97
2022-09-23T13:37:49.794Z,94482.03
2022-09-23T13:40:18.212Z,94484.13
2022-09-23T13:42:48.442Z,94488.03
2022-09-23T13:45:22.884Z,94478.00
2022-09-23T13:47:50.253Z,94485.94
2022-09-23T13:50:19.838Z,94486.56
2022-09-23T13:52:51.554Z,94488.00
2022-09-23T13:55:38.992Z,94483.16
2022-09-23T13:58:35.506Z,94470.19
2022-09-23T14:01:02.611Z,94481.25
2022-09-23T14:03:37.136Z,94478.28
2022-09-23T14:06:15.363Z,94476.34
2022-09-23T14:08:47.887Z,94474.34
2022-09-23T14:11:18.959Z,94459.09
2022-09-23T14:13:47.305Z,94467.94
2022-09-23T14:16:15.697Z,94468.41
2022-09-23T14:18:47.361Z,94457.72
2022-09-23T14:21:36.010Z,94468.41
2022-09-23T14:24:24.184Z,94456.41
2022-09-23T14:26:56.887Z,94455.75
2022-09-23T14:29:29.484Z,94443.25
2022-09-23T14:32:00.285Z,94460.97
2022-09-23T14:34:48.490Z,94460.88
2022-09-23T14:37:56.378Z,94454.16
2022-09-23T14:40:32.065Z,94454.63
2022-09-23T14:43:05.707Z,94461.06
2022-09-23T14:45:37.748Z,94460.47
2022-09-23T14:48:10.470Z,94453.66
2022-09-23T14:50:37.227Z,94447.03
2022-09-23T14:53:04.707Z,94440.94
2022-09-23T14:55:31.577Z,94446.44
2022-09-23T14:58:04.767Z,94444.66
2022-09-23T15:00:31.670Z,94446.66
2022-09-23T15:03:03.606Z,94450.66
2022-09-23T15:05:39.054Z,94447.97
2022-09-23T15:08:06.359Z,94439.88
2022-09-23T15:10:37.621Z,94448.53
2022-09-23T15:13:09.590Z,94442.06
2022-09-23T15:15:36.482Z,94440.44
2022-09-23T15:18:05.482Z,94438.09
2022-09-23T15:20:32.367Z,94442.63
2022-09-23T15:22:59.004Z,94439.09
2022-09-23T15:25:28.204Z,94446.56
2022-09-23T15:28:03.345Z,94448.44
2022-09-23T15:30:30.717Z,94442.72
2022-09-23T15:32:57.441Z,94438.44
2022-09-23T15:35:27.805Z,94442.09
2022-09-23T15:37:58.295Z,94440.94
2022-09-23T15:40:36.357Z,94441.56
2022-09-23T15:43:20.991Z,94442.81
2022-09-23T15:45:53.314Z,94432.38
2022-09-23T15:48:26.203Z,94443.53
2022-09-23T15:50:54.422Z,94442.28
2022-09-23T15:53:24.057Z,94432.84
2022-09-23T15:55:51.725Z,94426.25
2022-09-23T15:58:19.294Z,94424.13
2022-09-23T16:00:47.880Z,94427.28
2022-09-23T16:03:16.681Z,94441.16
2022-09-23T16:05:46.942Z,94435.94
2022-09-23T16:08:14.696Z,94438.59
2022-09-23T16:10:42.485Z,94438.34
2022-09-23T16:13:13.861Z,94428.81
2022-09-23T16:15:41.442Z,94437.66
2022-09-23T16:18:09.489Z,94434.72
2022-09-23T16:20:38.830Z,94437.38
2022-09-23T16:23:18.454Z,94412.72
2022-09-23T16:25:45.052Z,94425.81
2022-09-23T16:28:11.669Z,94430.50
2022-09-23T16:30:38.344Z,94442.97
2022-09-23T16:33:04.945Z,94435.56
2022-09-23T16:35:33.695Z,94451.03
2022-09-23T16:38:00.289Z,94445.56
2022-09-23T16:40:27.079Z,94444.16
2022-09-23T16:42:55.100Z,94443.22
2022-09-23T16:45:23.199Z,94451.63
2022-09-23T16:47:54.432Z,94449.97
2022-09-23T16:50:22.833Z,94458.69
2022-09-23T16:52:55.266Z,94443.66
2022-09-23T16:55:22.568Z,94460.50
2022-09-23T16:57:49.197Z,94457.66
2022-09-23T17:00:35.108Z,94458.97
2022-09-23T17:03:22.725Z,94453.72
2022-09-23T17:05:49.840Z,94453.41
2022-09-23T17:08:17.704Z,94458.78
2022-09-23T17:10:46.066Z,94452.91
2022-09-23T17:13:15.694Z,94452.75
2022-09-23T17:15:44.128Z,94420.56
2022-09-23T17:18:10.785Z,94448.75
2022-09-23T17:20:38.777Z,94447.97
2022-09-23T17:23:06.054Z,94447.81
2022-09-23T17:25:34.116Z,94440.50
2022-09-23T17:28:01.009Z,94451.34
2022-09-23T17:30:28.902Z,94453.41
2022-09-23T17:32:55.509Z,94453.44
2022-09-23T17:35:22.155Z,94454.69
2022-09-23T17:37:48.852Z,94450.13
2022-09-23T17:40:15.706Z,94456.06
2022-09-23T17:42:42.543Z,94444.25
2022-09-23T17:45:12.522Z,94457.09
2022-09-23T17:47:41.922Z,94462.78
2022-09-23T17:50:08.835Z,94459.72
2022-09-23T17:52:35.467Z,94469.50
2022-09-23T17:55:02.381Z,94468.03
2022-09-23T17:57:28.972Z,94459.25
2022-09-23T17:59:56.193Z,94464.28
2022-09-23T18:02:22.952Z,94468.75
2022-09-23T18:04:49.864Z,94467.50
2022-09-23T18:07:16.506Z,94458.03
2022-09-23T18:09:43.153Z,94467.38
2022-09-23T18:12:09.840Z,94470.41
2022-09-23T18:14:36.468Z,94464.22
2022-09-23T18:17:03.122Z,94477.25
2022-09-23T18:19:29.766Z,94454.16
2022-09-23T18:21:57.383Z,94466.16
2022-09-23T18:24:33.171Z,94454.09
2022-09-23T18:27:00.995Z,94456.13
2022-09-23T18:29:27.652Z,94463.50
2022-09-23T18:31:54.546Z,94465.69
2022-09-23T18:34:21.465Z,94464.13
2022-09-23T18:36:48.241Z,94455.94
2022-09-23T18:39:14.972Z,94464.03
2022-09-23T18:41:41.589Z,94469.69
2022-09-23T18:44:08.827Z,94464.72
2022-09-23T18:46:35.675Z,94454.91
2022-09-23T18:49:21.420Z,94460.09
2022-09-23T18:51:50.539Z,94452.69
2022-09-23T18:54:17.137Z,94459.88
2022-09-23T18:56:44.742Z,94460.69
2022-09-23T18:59:14.597Z,94448.38
2022-09-23T19:01:41.308Z,94459.88
2022-09-23T19:04:08.333Z,94467.53
2022-09-23T19:06:35.609Z,94458.66
2022-09-23T19:09:02.347Z,94453.78
2022-09-23T19:11:28.973Z,94459.78
2022-09-23T19:13:58.033Z,94466.66
2022-09-23T19:16:25.910Z,94461.38
2022-09-23T19:18:53.570Z,94459.28
2022-09-23T19:21:22.360Z,94456.59
2022-09-23T19:23:54.050Z,94454.22
2022-09-23T19:26:23.875Z,94468.75
2022-09-23T19:28:55.561Z,94460.94
2022-09-23T19:31:38.602Z,94468.09
2022-09-23T19:34:10.225Z,94467.38
2022-09-23T19:36:38.996Z,94458.03
2022-09-23T19:39:08.605Z,94453.09
2022-09-23T19:41:35.580Z,94440.03
2022-09-23T19:44:03.434Z,94449.59
2022-09-23T19:46:33.619Z,94445.50
2022-09-23T19:49:00.799Z,94450.03
2022-09-23T19:51:28.377Z,94445.56
2022-09-23T19:53:55.006Z,94452.44
2022-09-23T19:56:21.788Z,94449.69
2022-09-23T19:58:54.285Z,94455.97
2022-09-23T20:01:22.322Z,94446.25
2022-09-23T20:03:49.759Z,94449.78
2022-09-23T20:06:17.194Z,94452.34
2022-09-23T20:08:44.610Z,94450.34
2022-09-23T20:11:27.609Z,94442.16
2022-09-23T20:14:01.841Z,94436.06
2022-09-23T20:16:37.048Z,94440.22
2022-09-23T20:19:04.952Z,94429.13
2022-09-23T20:21:32.076Z,94438.38
2022-09-23T20:23:58.978Z,94444.56
2022-09-23T20:26:44.524Z,94441.84
2022-09-23T20:29:11.411Z,94417.31
2022-09-23T20:31:40.413Z,94415.03
2022-09-23T20:34:08.381Z,94418.59
2022-09-23T20:36:36.100Z,94426.50
2022-09-23T20:39:06.012Z,94423.13
2022-09-23T20:41:36.810Z,94416.38
2022-09-23T20:44:06.293Z,94405.31
2022-09-23T20:46:33.206Z,94418.75
2022-09-23T20:48:59.973Z,94414.84
2022-09-23T20:51:26.749Z,94416.47
2022-09-23T20:53:53.409Z,94409.94
2022-09-23T20:56:21.378Z,94403.09
2022-09-23T20:58:48.756Z,94430.06
2022-09-23T21:01:15.977Z,94427.09
2022-09-23T21:03:44.901Z,94419.91
2022-09-23T21:06:13.992Z,94406.53
2022-09-23T21:08:41.742Z,94411.16
2022-09-23T21:11:11.721Z,94407.00
2022-09-23T21:13:38.802Z,94427.75
2022-09-23T21:16:08.314Z,94419.03
2022-09-23T21:18:38.155Z,94422.47
2022-09-23T21:21:05.964Z,94422.78
2022-09-23T21:23:38.300Z,94425.41
2022-09-23T21:26:12.925Z,94431.03
2022-09-23T21:28:42.288Z,94433.97
2022-09-23T21:31:17.764Z,94428.69
2022-09-23T21:33:44.418Z,94422.81
2022-09-23T21:36:11.016Z,94425.19
2022-09-23T21:38:37.999Z,94422.97
2022-09-23T21:41:07.234Z,94421.69
2022-09-23T21:43:35.548Z,94422.09
2022-09-23T21:46:04.829Z,94419.81
2022-09-23T21:48:33.691Z,94436.19
2022-09-23T21:51:05.761Z,94421.69
2022-09-23T21:53:33.778Z,94419.44
2022-09-23T21:56:19.574Z,94410.09
2022-09-23T21:58:47.526Z,94415.47
2022-09-23T22:01:19.564Z,94414.50
2022-09-23T22:03:52.699Z,94416.81
2022-09-23T22:06:22.526Z,94435.25
2022-09-23T22:08:51.306Z,94435.94
2022-09-23T22:11:41.620Z,94432.34
2022-09-23T22:14:10.999Z,94420.84
2022-09-23T22:16:38.540Z,94430.16
2022-09-23T22:19:06.947Z,94420.00
2022-09-23T22:21:35.756Z,94435.47
2022-09-23T22:24:03.852Z,94419.38
2022-09-23T22:26:38.493Z,94429.28
2022-09-23T22:29:25.638Z,94430.41
2022-09-23T22:32:11.341Z,94414.84
2022-09-23T22:34:49.631Z,94418.34
2022-09-23T22:37:25.696Z,94427.19
2022-09-23T22:39:52.949Z,94421.38
2022-09-23T22:42:22.561Z,94410.94
2022-09-23T22:44:49.923Z,94416.69
2022-09-23T22:47:18.181Z,94405.34
2022-09-23T22:49:46.285Z,94415.38
2022-09-23T22:52:14.999Z,94401.81
2022-09-23T22:54:41.857Z,94415.13
2022-09-23T22:57:09.221Z,94419.09
2022-09-23T22:59:36.021Z,94407.28
2022-09-23T23:02:03.362Z,94400.75
2022-09-23T23:04:30.261Z,94404.84
2022-09-23T23:06:58.627Z,94397.44
2022-09-23T23:09:25.289Z,94402.03
2022-09-23T23:11:51.924Z,94402.75
2022-09-23T23:14:18.989Z,94403.75
2022-09-23T23:16:46.223Z,94400.97
2022-09-23T23:19:16.480Z,94395.25
2022-09-23T23:21:43.745Z,94391.63
2022-09-23T23:24:15.493Z,94395.06
2022-09-23T23:26:42.850Z,94390.28
2022-09-23T23:29:11.127Z,94400.34
2022-09-23T23:31:37.984Z,94377.44
2022-09-23T23:34:05.295Z,94391.69
2022-09-23T23:36:31.926Z,94380.53
2022-09-23T23:38:58.705Z,94386.78
2022-09-23T23:41:25.297Z,94378.25
2022-09-23T23:43:57.156Z,94380.19
2022-09-23T23:46:28.338Z,94357.88
2022-09-23T23:48:55.826Z,94370.59
2022-09-23T23:51:23.365Z,94372.75
2022-09-23T23:53:50.104Z,94372.25
2022-09-23T23:56:18.744Z,94354.59
2022-09-23T23:58:45.451Z,94352.75
